createdAt,value
2023-01-17T00:01:34.797Z,1.86
2023-01-17T00:04:20.449Z,1.80
2023-01-17T00:07:05.652Z,1.81
2023-01-17T00:09:51.098Z,1.72
2023-01-17T00:12:17.722Z,1.75
2023-01-17T00:14:44.429Z,1.71
2023-01-17T00:17:11.026Z,1.72
2023-01-17T00:19:55.999Z,1.73
2023-01-17T00:22:44.145Z,1.62
2023-01-17T00:25:31.440Z,1.61
2023-01-17T00:27:58.104Z,1.54
2023-01-17T00:30:24.778Z,1.44
2023-01-17T00:32:51.604Z,1.47
2023-01-17T00:35:19.220Z,1.44
2023-01-17T00:37:45.879Z,1.42
2023-01-17T00:40:12.506Z,1.39
2023-01-17T00:42:39.062Z,1.38
2023-01-17T00:45:24.493Z,1.25
2023-01-17T00:48:09.747Z,1.25
2023-01-17T00:50:56.558Z,1.31
2023-01-17T00:53:41.790Z,1.29
2023-01-17T00:56:27.193Z,1.29
2023-01-17T00:59:12.811Z,1.18
2023-01-17T01:01:58.319Z,1.27
2023-01-17T01:04:43.458Z,1.17
2023-01-17T01:07:28.669Z,1.17
2023-01-17T01:10:13.967Z,1.10
2023-01-17T01:12:59.242Z,1.03
2023-01-17T01:15:44.595Z,1.06
2023-01-17T01:18:30.784Z,1.07
2023-01-17T01:21:21.288Z,1.01
2023-01-17T01:24:06.833Z,1.04
2023-01-17T01:26:52.090Z,1.01
2023-01-17T01:29:37.378Z,0.95
2023-01-17T01:32:22.756Z,0.99
2023-01-17T01:34:49.333Z,1.07
2023-01-17T01:37:15.916Z,0.97
2023-01-17T01:39:42.468Z,0.95
2023-01-17T01:42:15.513Z,0.97
2023-01-17T01:44:50.787Z,0.90
2023-01-17T01:47:30.470Z,0.94
2023-01-17T01:50:00.154Z,0.91
2023-01-17T01:52:30.718Z,0.93
2023-01-17T01:55:07.955Z,1.00
2023-01-17T01:57:40.837Z,0.99
2023-01-17T02:00:14.657Z,0.97
2023-01-17T02:02:45.684Z,0.94
2023-01-17T02:05:16.361Z,0.91
2023-01-17T02:07:51.616Z,0.97
2023-01-17T02:10:18.355Z,0.96
2023-01-17T02:12:45.785Z,0.95
2023-01-17T02:15:12.747Z,0.92
2023-01-17T02:18:05.656Z,0.92
2023-01-17T02:20:59.464Z,0.97
2023-01-17T02:23:45.179Z,0.97
2023-01-17T02:26:23.483Z,0.98
2023-01-17T02:29:25.561Z,0.98
2023-01-17T02:32:01.161Z,0.97
2023-01-17T02:34:45.692Z,0.92
2023-01-17T02:37:23.144Z,1.00
2023-01-17T02:39:56.184Z,0.99
2023-01-17T02:42:30.247Z,0.93
2023-01-17T02:44:56.811Z,0.91
2023-01-17T02:47:26.320Z,0.88
2023-01-17T02:49:55.786Z,0.79
2023-01-17T02:52:37.490Z,0.78
2023-01-17T02:55:23.162Z,0.78
2023-01-17T02:58:01.927Z,0.79
2023-01-17T03:00:42.976Z,0.67
2023-01-17T03:03:40.308Z,0.73
2023-01-17T03:06:21.648Z,0.64
2023-01-17T03:08:51.695Z,0.65
2023-01-17T03:11:19.086Z,0.58
2023-01-17T03:13:45.693Z,0.57
2023-01-17T03:16:20.651Z,0.60
2023-01-17T03:18:47.540Z,0.64
2023-01-17T03:21:14.288Z,0.60
2023-01-17T03:23:40.887Z,0.64
2023-01-17T03:26:07.490Z,0.62
2023-01-17T03:28:34.185Z,0.68
2023-01-17T03:31:00.848Z,0.71
2023-01-17T03:33:27.495Z,0.61
2023-01-17T03:35:54.896Z,0.71
2023-01-17T03:38:21.976Z,0.62
2023-01-17T03:40:48.836Z,0.56
2023-01-17T03:43:15.508Z,0.52
2023-01-17T03:45:42.133Z,0.62
2023-01-17T03:48:08.819Z,0.61
2023-01-17T03:50:35.541Z,0.64
2023-01-17T03:53:02.165Z,0.72
2023-01-17T03:55:28.753Z,0.76
2023-01-17T03:57:55.307Z,0.66
2023-01-17T04:00:22.584Z,0.68
2023-01-17T04:02:49.259Z,0.73
2023-01-17T04:05:16.161Z,0.66
2023-01-17T04:07:43.017Z,0.62
2023-01-17T04:10:10.174Z,0.56
2023-01-17T04:12:36.776Z,0.50
2023-01-17T04:15:03.525Z,0.38
2023-01-17T04:17:30.147Z,0.34
2023-01-17T04:19:56.822Z,0.27
2023-01-17T04:22:23.398Z,0.27
2023-01-17T04:24:49.986Z,0.23
2023-01-17T04:27:16.669Z,0.26
2023-01-17T04:29:44.784Z,0.23
2023-01-17T04:32:13.104Z,0.20
2023-01-17T04:34:39.743Z,0.22
2023-01-17T04:37:06.367Z,0.21
2023-01-17T04:39:32.982Z,0.21
2023-01-17T04:41:59.649Z,0.21
2023-01-17T04:44:26.459Z,0.20
2023-01-17T04:46:53.044Z,0.20
2023-01-17T04:49:19.634Z,0.23
2023-01-17T04:51:46.239Z,0.21
2023-01-17T04:54:12.821Z,0.23
2023-01-17T04:56:39.372Z,0.26
2023-01-17T04:59:06.039Z,0.23
2023-01-17T05:01:32.744Z,0.23
2023-01-17T05:03:59.400Z,0.19
2023-01-17T05:06:26.051Z,0.20
2023-01-17T05:08:52.596Z,0.14
2023-01-17T05:11:19.221Z,0.09
2023-01-17T05:13:48.413Z,0.10
2023-01-17T05:16:19.256Z,0.14
2023-01-17T05:18:45.912Z,0.10
2023-01-17T05:21:12.545Z,0.07
2023-01-17T05:23:40.505Z,-0.02
2023-01-17T05:26:07.125Z,-0.10
2023-01-17T05:28:33.691Z,-0.11
2023-01-17T05:31:00.459Z,-0.13
2023-01-17T05:33:27.118Z,-0.19
2023-01-17T05:35:53.766Z,-0.19
2023-01-17T05:38:20.550Z,-0.25
2023-01-17T05:40:47.138Z,-0.31
2023-01-17T05:43:13.721Z,-0.32
2023-01-17T05:45:40.345Z,-0.34
2023-01-17T05:48:06.936Z,-0.35
2023-01-17T05:50:37.989Z,-0.26
2023-01-17T05:53:07.756Z,-0.23
2023-01-17T05:55:35.546Z,-0.20
2023-01-17T05:58:02.429Z,-0.17
2023-01-17T06:00:29.774Z,-0.22
2023-01-17T06:02:58.441Z,-0.20
2023-01-17T06:05:26.152Z,-0.21
2023-01-17T06:07:52.937Z,-0.20
2023-01-17T06:10:20.992Z,-0.16
2023-01-17T06:12:48.219Z,-0.19
2023-01-17T06:15:17.039Z,-0.19
2023-01-17T06:17:43.639Z,-0.18
2023-01-17T06:20:12.036Z,-0.31
2023-01-17T06:22:38.606Z,-0.38
2023-01-17T06:25:05.610Z,-0.46
2023-01-17T06:27:32.344Z,-0.47
2023-01-17T06:29:58.921Z,-0.44
2023-01-17T06:32:25.494Z,-0.42
2023-01-17T06:34:52.101Z,-0.41
2023-01-17T06:37:18.675Z,-0.46
2023-01-17T06:39:45.592Z,-0.53
2023-01-17T06:42:12.280Z,-0.52
2023-01-17T06:44:38.961Z,-0.61
2023-01-17T06:47:05.551Z,-0.63
2023-01-17T06:49:32.276Z,-0.59
2023-01-17T06:51:58.908Z,-0.75
2023-01-17T06:54:25.678Z,-0.81
2023-01-17T06:56:52.232Z,-0.77
2023-01-17T06:59:18.783Z,-0.83
2023-01-17T07:01:45.731Z,-0.80
2023-01-17T07:04:12.336Z,-0.84
2023-01-17T07:06:38.997Z,-0.86
2023-01-17T07:09:05.688Z,-0.99
2023-01-17T07:11:32.522Z,-1.01
2023-01-17T07:13:59.217Z,-0.88
2023-01-17T07:16:25.947Z,-0.86
2023-01-17T07:18:54.718Z,-0.88
2023-01-17T07:21:22.720Z,-1.03
2023-01-17T07:23:49.396Z,-0.93
2023-01-17T07:26:17.352Z,-0.98
2023-01-17T07:28:44.226Z,-1.09
2023-01-17T07:31:11.258Z,-1.09
2023-01-17T07:33:37.979Z,-1.08
2023-01-17T07:36:09.398Z,-0.92
2023-01-17T07:38:36.335Z,-0.87
2023-01-17T07:41:03.460Z,-0.86
2023-01-17T07:43:30.075Z,-0.87
2023-01-17T07:45:56.746Z,-0.95
2023-01-17T07:48:25.003Z,-1.00
2023-01-17T07:50:56.030Z,-0.93
2023-01-17T07:53:27.735Z,-0.97
2023-01-17T07:55:54.488Z,-0.88
2023-01-17T07:58:22.228Z,-0.74
2023-01-17T08:00:48.901Z,-0.72
2023-01-17T08:03:17.819Z,-0.72
2023-01-17T08:05:53.835Z,-0.89
2023-01-17T08:08:20.472Z,-0.99
2023-01-17T08:10:47.334Z,-1.00
2023-01-17T08:13:13.957Z,-0.91
2023-01-17T08:15:40.934Z,-0.95
2023-01-17T08:18:07.499Z,-1.15
2023-01-17T08:20:34.123Z,-0.90
2023-01-17T08:23:00.833Z,-0.72
2023-01-17T08:25:27.651Z,-0.58
2023-01-17T08:27:58.141Z,-0.40
2023-01-17T08:30:25.492Z,-0.18
2023-01-17T08:32:52.081Z,-0.02
2023-01-17T08:35:20.121Z,0.15
2023-01-17T08:37:48.408Z,0.39
2023-01-17T08:40:17.186Z,0.39
2023-01-17T08:42:44.277Z,0.40
2023-01-17T08:45:12.146Z,0.35
2023-01-17T08:47:38.789Z,0.52
2023-01-17T08:50:06.756Z,0.67
2023-01-17T08:52:33.705Z,0.86
2023-01-17T08:55:00.257Z,0.95
2023-01-17T08:57:26.853Z,1.03
2023-01-17T08:59:53.467Z,1.08
2023-01-17T09:02:20.495Z,1.17
2023-01-17T09:04:48.689Z,1.28
2023-01-17T09:07:16.587Z,1.27
2023-01-17T09:09:43.151Z,1.39
2023-01-17T09:12:09.964Z,1.62
2023-01-17T09:14:37.482Z,1.73
2023-01-17T09:17:05.761Z,1.84
2023-01-17T09:19:32.893Z,1.90
2023-01-17T09:21:59.453Z,1.99
2023-01-17T09:24:26.044Z,2.02
2023-01-17T09:26:52.639Z,2.09
2023-01-17T09:29:19.202Z,2.19
2023-01-17T09:31:48.107Z,2.21
2023-01-17T09:34:14.780Z,2.27
2023-01-17T09:36:42.313Z,2.44
2023-01-17T09:39:10.593Z,2.45
2023-01-17T09:42:02.021Z,2.47
2023-01-17T09:44:43.038Z,2.50
2023-01-17T09:47:36.496Z,2.53
2023-01-17T09:50:42.117Z,2.62
2023-01-17T09:53:20.936Z,2.66
2023-01-17T09:56:00.698Z,2.50
2023-01-17T09:59:19.019Z,2.40
2023-01-17T10:01:58.037Z,2.62
2023-01-17T10:04:43.611Z,2.64
2023-01-17T10:07:28.707Z,2.75
2023-01-17T10:10:12.026Z,2.67
2023-01-17T10:13:00.472Z,2.74
2023-01-17T10:16:18.140Z,2.89
2023-01-17T10:19:03.887Z,2.91
2023-01-17T10:21:41.581Z,2.88
2023-01-17T10:24:57.595Z,2.87
2023-01-17T10:27:34.375Z,2.94
2023-01-17T10:30:16.788Z,3.01
2023-01-17T10:32:48.360Z,2.94
2023-01-17T10:35:29.821Z,3.15
2023-01-17T10:37:58.542Z,3.19
2023-01-17T10:40:38.407Z,3.22
2023-01-17T10:43:15.092Z,3.16
2023-01-17T10:45:51.386Z,3.35
2023-01-17T10:48:38.869Z,3.45
2023-01-17T10:51:43.067Z,3.58
2023-01-17T10:54:29.947Z,3.24
2023-01-17T10:56:58.292Z,3.27
2023-01-17T10:59:33.532Z,3.63
2023-01-17T11:02:07.825Z,4.00
2023-01-17T11:04:38.300Z,4.11
2023-01-17T11:07:19.887Z,4.33
2023-01-17T11:09:51.684Z,4.30
2023-01-17T11:12:41.678Z,4.25
2023-01-17T11:15:11.288Z,4.24
2023-01-17T11:17:53.100Z,4.13
2023-01-17T11:20:42.995Z,3.97
2023-01-17T11:23:21.116Z,4.05
2023-01-17T11:26:02.428Z,3.78
2023-01-17T11:28:32.349Z,3.97
2023-01-17T11:31:07.517Z,4.11
2023-01-17T11:33:46.544Z,4.48
2023-01-17T11:36:22.001Z,4.68
2023-01-17T11:38:59.686Z,4.66
2023-01-17T11:41:28.233Z,4.71
2023-01-17T11:43:59.072Z,4.76
2023-01-17T11:46:29.125Z,4.87
2023-01-17T11:49:00.686Z,4.85
2023-01-17T11:51:29.205Z,4.95
2023-01-17T11:54:08.386Z,4.89
2023-01-17T11:56:37.286Z,4.78
2023-01-17T11:59:22.607Z,4.18
2023-01-17T12:02:02.414Z,3.80
2023-01-17T12:04:40.869Z,3.63
2023-01-17T12:07:20.473Z,3.65
2023-01-17T12:10:00.222Z,3.97
2023-01-17T12:13:00.639Z,4.18
2023-01-17T12:15:50.891Z,4.60
2023-01-17T12:18:24.629Z,4.70
2023-01-17T12:21:14.491Z,4.50
2023-01-17T12:24:01.402Z,4.36
2023-01-17T12:26:40.281Z,4.54
2023-01-17T12:29:30.269Z,4.77
2023-01-17T12:32:27.612Z,4.72
2023-01-17T12:35:15.402Z,4.88
2023-01-17T12:37:45.768Z,4.87
2023-01-17T12:40:22.214Z,4.72
2023-01-17T12:42:56.089Z,4.32
2023-01-17T12:45:32.120Z,4.27
2023-01-17T12:48:05.591Z,4.48
2023-01-17T12:50:49.043Z,4.24
2023-01-17T12:53:23.737Z,3.80
2023-01-17T12:56:06.674Z,3.54
2023-01-17T12:59:15.704Z,3.81
2023-01-17T13:01:57.365Z,3.97
2023-01-17T13:04:26.898Z,3.87
2023-01-17T13:06:59.691Z,3.85
2023-01-17T13:09:34.545Z,3.49
2023-01-17T13:12:06.271Z,3.50
2023-01-17T13:14:32.994Z,3.37
2023-01-17T13:17:05.959Z,3.29
2023-01-17T13:19:57.182Z,3.43
2023-01-17T13:22:27.070Z,3.47
2023-01-17T13:25:14.647Z,3.39
2023-01-17T13:28:23.959Z,3.37
2023-01-17T13:31:18.567Z,3.16
2023-01-17T13:34:04.909Z,2.99
2023-01-17T13:36:45.827Z,2.93
2023-01-17T13:39:40.063Z,2.79
2023-01-17T13:42:14.789Z,2.78
2023-01-17T13:44:41.946Z,2.69
2023-01-17T13:47:17.788Z,2.68
2023-01-17T13:49:44.649Z,2.52
2023-01-17T13:52:27.102Z,2.52
2023-01-17T13:54:56.523Z,2.49
2023-01-17T13:57:23.032Z,2.57
2023-01-17T13:59:49.993Z,2.58
2023-01-17T14:02:31.414Z,2.64
2023-01-17T14:05:23.114Z,2.62
2023-01-17T14:08:15.097Z,2.63
2023-01-17T14:10:52.088Z,2.59
2023-01-17T14:13:45.046Z,2.58
2023-01-17T14:16:28.963Z,2.63
2023-01-17T14:18:55.956Z,2.61
2023-01-17T14:21:25.384Z,2.60
2023-01-17T14:24:16.352Z,2.52
2023-01-17T14:27:19.775Z,2.43
2023-01-17T14:29:50.843Z,2.31
2023-01-17T14:32:23.618Z,2.33
2023-01-17T14:34:52.168Z,2.30
2023-01-17T14:37:29.411Z,2.29
2023-01-17T14:39:56.266Z,2.24
2023-01-17T14:42:26.322Z,2.17
2023-01-17T14:45:00.300Z,2.20
2023-01-17T14:47:31.834Z,2.20
2023-01-17T14:50:22.322Z,2.15
2023-01-17T14:53:11.306Z,1.96
2023-01-17T14:55:49.055Z,1.91
2023-01-17T14:58:31.677Z,1.82
2023-01-17T15:01:07.316Z,1.71
2023-01-17T15:03:43.335Z,1.41
2023-01-17T15:06:12.795Z,1.29
2023-01-17T15:08:39.609Z,1.27
2023-01-17T15:11:10.031Z,1.24
2023-01-17T15:13:45.292Z,1.22
2023-01-17T15:16:27.782Z,1.22
2023-01-17T15:18:55.651Z,1.07
2023-01-17T15:21:24.799Z,1.06
2023-01-17T15:23:57.489Z,0.95
2023-01-17T15:26:27.341Z,0.71
2023-01-17T15:29:06.980Z,0.66
2023-01-17T15:31:42.796Z,0.61
2023-01-17T15:34:26.242Z,0.55
2023-01-17T15:36:53.668Z,0.40
2023-01-17T15:39:40.401Z,0.27
2023-01-17T15:42:18.345Z,0.31
2023-01-17T15:44:48.815Z,0.30
2023-01-17T15:47:32.784Z,0.30
2023-01-17T15:50:01.897Z,0.26
2023-01-17T15:52:29.194Z,0.27
2023-01-17T15:55:13.546Z,0.24
2023-01-17T15:57:40.249Z,0.09
2023-01-17T16:00:20.326Z,-0.02
2023-01-17T16:02:55.415Z,-0.09
2023-01-17T16:05:22.626Z,-0.17
2023-01-17T16:07:54.610Z,-0.26
2023-01-17T16:10:21.432Z,-0.33
2023-01-17T16:12:50.489Z,-0.39
2023-01-17T16:15:18.576Z,-0.44
2023-01-17T16:17:48.526Z,-0.44
2023-01-17T16:20:20.567Z,-0.44
2023-01-17T16:22:47.317Z,-0.44
2023-01-17T16:25:16.714Z,-0.53
2023-01-17T16:27:43.636Z,-0.61
2023-01-17T16:30:12.267Z,-0.60
2023-01-17T16:32:38.883Z,-0.58
2023-01-17T16:35:07.149Z,-0.55
2023-01-17T16:37:33.699Z,-0.70
2023-01-17T16:40:00.555Z,-0.79
2023-01-17T16:42:28.684Z,-0.82
2023-01-17T16:44:55.407Z,-0.83
2023-01-17T16:47:22.564Z,-0.95
2023-01-17T16:49:49.289Z,-0.92
2023-01-17T16:52:16.659Z,-0.93
2023-01-17T16:54:44.310Z,-0.92
2023-01-17T16:57:10.988Z,-0.94
2023-01-17T16:59:50.155Z,-0.98
2023-01-17T17:02:18.623Z,-1.02
2023-01-17T17:04:45.591Z,-1.01
2023-01-17T17:07:12.177Z,-1.03
2023-01-17T17:09:38.753Z,-1.07
2023-01-17T17:12:05.883Z,-1.04
2023-01-17T17:14:32.690Z,-1.10
2023-01-17T17:17:02.057Z,-1.20
2023-01-17T17:19:28.637Z,-1.24
2023-01-17T17:21:58.442Z,-1.17
2023-01-17T17:24:25.832Z,-1.18
2023-01-17T17:26:52.969Z,-1.25
2023-01-17T17:29:20.302Z,-1.27
2023-01-17T17:31:47.171Z,-1.26
2023-01-17T17:34:15.300Z,-1.23
2023-01-17T17:36:42.860Z,-1.28
2023-01-17T17:39:15.281Z,-1.29
2023-01-17T17:41:44.954Z,-1.31
2023-01-17T17:44:12.404Z,-1.23
2023-01-17T17:46:39.098Z,-1.28
2023-01-17T17:49:08.363Z,-1.31
2023-01-17T17:51:37.792Z,-1.43
2023-01-17T17:54:07.828Z,-1.58
2023-01-17T17:56:35.245Z,-1.69
2023-01-17T17:59:03.874Z,-1.83
2023-01-17T18:01:32.063Z,-1.92
2023-01-17T18:04:03.081Z,-1.90
2023-01-17T18:06:30.559Z,-1.94
2023-01-17T18:08:57.698Z,-2.01
2023-01-17T18:11:26.791Z,-2.04
2023-01-17T18:13:55.314Z,-2.11
2023-01-17T18:16:28.169Z,-2.16
2023-01-17T18:18:57.179Z,-2.16
2023-01-17T18:21:34.884Z,-2.10
2023-01-17T18:24:04.972Z,-2.17
2023-01-17T18:26:46.061Z,-2.27
2023-01-17T18:29:15.800Z,-2.28
2023-01-17T18:31:44.680Z,-2.41
2023-01-17T18:34:15.512Z,-2.41
2023-01-17T18:36:43.238Z,-2.42
2023-01-17T18:39:18.801Z,-2.40
2023-01-17T18:41:46.299Z,-2.31
2023-01-17T18:44:13.540Z,-2.32
2023-01-17T18:46:42.012Z,-2.34
2023-01-17T18:49:12.811Z,-2.30
2023-01-17T18:51:39.454Z,-2.28
2023-01-17T18:54:08.897Z,-2.29
2023-01-17T18:56:36.000Z,-2.28
2023-01-17T18:59:05.948Z,-2.23
2023-01-17T19:01:35.985Z,-2.25
2023-01-17T19:04:04.551Z,-2.28
2023-01-17T19:06:33.917Z,-2.25
2023-01-17T19:09:01.921Z,-2.23
2023-01-17T19:11:30.520Z,-2.20
2023-01-17T19:13:57.327Z,-2.24
2023-01-17T19:16:30.266Z,-2.28
2023-01-17T19:19:01.497Z,-2.34
2023-01-17T19:21:29.062Z,-2.35
2023-01-17T19:23:58.425Z,-2.39
2023-01-17T19:26:27.310Z,-2.19
2023-01-17T19:28:56.821Z,-2.03
2023-01-17T19:31:26.250Z,-2.02
2023-01-17T19:33:57.777Z,-2.04
2023-01-17T19:36:28.977Z,-2.10
2023-01-17T19:39:04.361Z,-2.27
2023-01-17T19:41:34.739Z,-2.28
2023-01-17T19:44:03.548Z,-2.21
2023-01-17T19:46:32.271Z,-2.17
2023-01-17T19:48:59.677Z,-2.26
2023-01-17T19:51:27.781Z,-2.20
2023-01-17T19:53:57.447Z,-2.11
2023-01-17T19:56:27.933Z,-2.09
2023-01-17T19:58:57.339Z,-2.07
2023-01-17T20:01:28.403Z,-2.06
2023-01-17T20:03:57.831Z,-2.06
2023-01-17T20:06:28.120Z,-2.01
2023-01-17T20:08:55.481Z,-2.05
2023-01-17T20:11:23.519Z,-2.07
2023-01-17T20:13:56.810Z,-2.06
2023-01-17T20:16:26.000Z,-2.01
2023-01-17T20:18:53.094Z,-2.04
2023-01-17T20:21:22.708Z,-2.17
2023-01-17T20:23:51.755Z,-2.23
2023-01-17T20:26:35.164Z,-2.38
2023-01-17T20:29:10.957Z,-2.56
2023-01-17T20:31:38.693Z,-2.46
2023-01-17T20:34:06.769Z,-2.48
2023-01-17T20:36:34.262Z,-2.58
2023-01-17T20:39:03.795Z,-2.59
2023-01-17T20:41:32.563Z,-2.57
2023-01-17T20:44:00.958Z,-2.58
2023-01-17T20:46:31.351Z,-2.56
2023-01-17T20:48:58.547Z,-2.59
2023-01-17T20:51:27.871Z,-2.59
2023-01-17T20:53:57.142Z,-2.57
2023-01-17T20:56:24.606Z,-2.35
2023-01-17T20:58:52.262Z,-2.12
2023-01-17T21:01:19.869Z,-1.99
2023-01-17T21:03:49.799Z,-1.97
2023-01-17T21:06:16.652Z,-1.98
2023-01-17T21:08:45.411Z,-1.98
2023-01-17T21:11:15.361Z,-1.88
2023-01-17T21:13:43.017Z,-1.84
2023-01-17T21:16:12.810Z,-1.78
2023-01-17T21:18:39.453Z,-1.71
2023-01-17T21:21:21.902Z,-1.65
2023-01-17T21:23:50.373Z,-1.65
2023-01-17T21:26:19.569Z,-1.63
2023-01-17T21:28:48.438Z,-1.50
2023-01-17T21:31:24.533Z,-1.30
2023-01-17T21:34:00.186Z,-1.12
2023-01-17T21:36:30.628Z,-1.23
2023-01-17T21:39:04.159Z,-1.34
2023-01-17T21:41:33.796Z,-1.42
2023-01-17T21:44:03.144Z,-1.43
2023-01-17T21:46:30.536Z,-1.40
2023-01-17T21:48:58.019Z,-1.47
2023-01-17T21:51:44.982Z,-1.49
2023-01-17T21:54:11.584Z,-1.46
2023-01-17T21:56:57.071Z,-1.41
2023-01-17T21:59:24.287Z,-1.39
2023-01-17T22:01:51.004Z,-1.36
2023-01-17T22:04:17.616Z,-1.27
2023-01-17T22:06:44.205Z,-1.23
2023-01-17T22:09:10.789Z,-1.21
2023-01-17T22:11:37.483Z,-1.18
2023-01-17T22:14:05.575Z,-1.17
2023-01-17T22:16:32.487Z,-1.17
2023-01-17T22:18:59.337Z,-1.17
2023-01-17T22:21:28.286Z,-1.16
2023-01-17T22:23:57.162Z,-1.15
2023-01-17T22:26:30.051Z,-1.10
2023-01-17T22:28:59.776Z,-1.12
2023-01-17T22:31:27.736Z,-1.15
2023-01-17T22:33:56.651Z,-1.17
2023-01-17T22:36:24.348Z,-1.18
2023-01-17T22:38:50.975Z,-1.17
2023-01-17T22:41:23.766Z,-1.15
2023-01-17T22:43:54.079Z,-1.17
2023-01-17T22:46:31.105Z,-1.11
2023-01-17T22:48:58.337Z,-1.13
2023-01-17T22:51:27.011Z,-1.14
2023-01-17T22:53:56.550Z,-1.15
2023-01-17T22:56:28.198Z,-1.18
2023-01-17T22:58:55.389Z,-1.20
2023-01-17T23:01:25.512Z,-1.14
2023-01-17T23:04:00.798Z,-1.14
2023-01-17T23:06:33.331Z,-1.10
2023-01-17T23:09:03.217Z,-1.19
2023-01-17T23:11:43.847Z,-1.26
2023-01-17T23:14:18.644Z,-1.26
2023-01-17T23:17:08.361Z,-1.25
2023-01-17T23:19:43.889Z,-1.24
2023-01-17T23:22:20.245Z,-1.15
2023-01-17T23:24:48.493Z,-1.09
2023-01-17T23:27:40.094Z,-0.90
2023-01-17T23:30:15.961Z,-0.80
2023-01-17T23:33:06.706Z,-0.90
2023-01-17T23:35:41.293Z,-0.84
2023-01-17T23:38:31.210Z,-0.78
2023-01-17T23:41:27.648Z,-0.76
2023-01-17T23:43:58.985Z,-0.75
2023-01-17T23:46:27.429Z,-0.72
2023-01-17T23:48:55.241Z,-0.71
2023-01-17T23:51:22.458Z,-0.71
2023-01-17T23:53:50.964Z,-0.74
2023-01-17T23:56:21.691Z,-0.78
2023-01-17T23:58:48.807Z,-0.81
